sensor_id;sensor_type;location;lat;lon;timestamp;P1;durP1;ratioP1;P2;durP2;ratioP2
55090;SDS011;40985;53.180;5.800;2023-06-04T00:00:39;5.07;;;1.42;;
55090;SDS011;40985;53.180;5.800;2023-06-04T00:03:04;6.97;;;1.75;;
55090;SDS011;40985;53.180;5.800;2023-06-04T00:05:31;6.90;;;1.52;;
55090;SDS011;40985;53.180;5.800;2023-06-04T00:07:57;8.20;;;2.65;;
55090;SDS011;40985;53.180;5.800;2023-06-04T00:10:23;7.00;;;1.88;;
55090;SDS011;40985;53.180;5.800;2023-06-04T00:12:48;8.82;;;2.20;;
55090;SDS011;40985;53.180;5.800;2023-06-04T00:15:14;8.55;;;2.42;;
55090;SDS011;40985;53.180;5.800;2023-06-04T00:17:41;9.70;;;2.60;;
55090;SDS011;40985;53.180;5.800;2023-06-04T00:20:07;6.82;;;3.60;;
55090;SDS011;40985;53.180;5.800;2023-06-04T00:22:33;10.15;;;3.20;;
55090;SDS011;40985;53.180;5.800;2023-06-04T00:24:59;8.27;;;2.78;;
55090;SDS011;40985;53.180;5.800;2023-06-04T00:27:25;9.32;;;3.10;;
55090;SDS011;40985;53.180;5.800;2023-06-04T00:29:50;11.30;;;3.70;;
55090;SDS011;40985;53.180;5.800;2023-06-04T00:32:16;9.45;;;3.55;;
55090;SDS011;40985;53.180;5.800;2023-06-04T00:34:42;11.40;;;3.30;;
55090;SDS011;40985;53.180;5.800;2023-06-04T00:37:07;13.85;;;3.42;;
55090;SDS011;40985;53.180;5.800;2023-06-04T00:39:33;12.27;;;3.25;;
55090;SDS011;40985;53.180;5.800;2023-06-04T00:41:59;6.78;;;3.35;;
55090;SDS011;40985;53.180;5.800;2023-06-04T00:44:25;7.35;;;3.83;;
55090;SDS011;40985;53.180;5.800;2023-06-04T00:46:51;14.50;;;3.97;;
55090;SDS011;40985;53.180;5.800;2023-06-04T00:49:19;9.43;;;4.00;;
55090;SDS011;40985;53.180;5.800;2023-06-04T00:51:45;10.20;;;4.43;;
55090;SDS011;40985;53.180;5.800;2023-06-04T00:54:11;12.48;;;4.40;;
55090;SDS011;40985;53.180;5.800;2023-06-04T00:56:38;8.43;;;4.05;;
55090;SDS011;40985;53.180;5.800;2023-06-04T00:59:05;9.48;;;3.60;;
55090;SDS011;40985;53.180;5.800;2023-06-04T01:01:37;14.50;;;4.38;;
55090;SDS011;40985;53.180;5.800;2023-06-04T01:04:34;13.52;;;4.30;;
55090;SDS011;40985;53.180;5.800;2023-06-04T01:07:04;12.73;;;4.07;;
55090;SDS011;40985;53.180;5.800;2023-06-04T01:09:34;11.18;;;3.85;;
55090;SDS011;40985;53.180;5.800;2023-06-04T01:12:05;14.27;;;3.72;;
55090;SDS011;40985;53.180;5.800;2023-06-04T01:14:32;7.88;;;3.10;;
55090;SDS011;40985;53.180;5.800;2023-06-04T01:25:24;10.13;;;2.80;;
55090;SDS011;40985;53.180;5.800;2023-06-04T01:27:57;9.40;;;3.25;;
55090;SDS011;40985;53.180;5.800;2023-06-04T01:30:28;11.07;;;3.22;;
55090;SDS011;40985;53.180;5.800;2023-06-04T01:32:57;9.63;;;2.97;;
55090;SDS011;40985;53.180;5.800;2023-06-04T01:35:25;8.75;;;3.35;;
55090;SDS011;40985;53.180;5.800;2023-06-04T01:37:51;8.55;;;3.53;;
55090;SDS011;40985;53.180;5.800;2023-06-04T01:40:17;12.80;;;3.35;;
55090;SDS011;40985;53.180;5.800;2023-06-04T01:42:44;10.80;;;3.63;;
55090;SDS011;40985;53.180;5.800;2023-06-04T01:45:10;8.93;;;3.05;;
55090;SDS011;40985;53.180;5.800;2023-06-04T01:47:36;9.95;;;4.80;;
55090;SDS011;40985;53.180;5.800;2023-06-04T01:50:02;14.23;;;4.60;;
55090;SDS011;40985;53.180;5.800;2023-06-04T01:52:30;12.95;;;4.10;;
55090;SDS011;40985;53.180;5.800;2023-06-04T01:54:56;7.72;;;4.07;;
55090;SDS011;40985;53.180;5.800;2023-06-04T01:57:22;10.50;;;3.60;;
55090;SDS011;40985;53.180;5.800;2023-06-04T01:59:48;9.68;;;4.22;;
55090;SDS011;40985;53.180;5.800;2023-06-04T02:02:14;10.38;;;3.65;;
55090;SDS011;40985;53.180;5.800;2023-06-04T02:04:40;13.50;;;4.00;;
55090;SDS011;40985;53.180;5.800;2023-06-04T02:07:09;12.80;;;5.10;;
55090;SDS011;40985;53.180;5.800;2023-06-04T02:09:36;12.95;;;4.72;;
55090;SDS011;40985;53.180;5.800;2023-06-04T02:12:03;12.75;;;5.22;;
55090;SDS011;40985;53.180;5.800;2023-06-04T02:14:29;10.75;;;5.30;;
55090;SDS011;40985;53.180;5.800;2023-06-04T02:16:54;14.73;;;6.07;;
55090;SDS011;40985;53.180;5.800;2023-06-04T02:19:23;13.48;;;6.50;;
55090;SDS011;40985;53.180;5.800;2023-06-04T02:21:51;21.90;;;8.10;;
55090;SDS011;40985;53.180;5.800;2023-06-04T02:24:17;16.92;;;7.82;;
55090;SDS011;40985;53.180;5.800;2023-06-04T02:26:42;16.10;;;9.25;;
55090;SDS011;40985;53.180;5.800;2023-06-04T02:29:08;18.60;;;9.20;;
55090;SDS011;40985;53.180;5.800;2023-06-04T02:31:34;14.63;;;8.52;;
55090;SDS011;40985;53.180;5.800;2023-06-04T02:34:00;17.88;;;9.60;;
55090;SDS011;40985;53.180;5.800;2023-06-04T02:36:25;19.17;;;8.68;;
55090;SDS011;40985;53.180;5.800;2023-06-04T02:38:51;17.00;;;9.43;;
55090;SDS011;40985;53.180;5.800;2023-06-04T02:41:17;17.85;;;9.32;;
55090;SDS011;40985;53.180;5.800;2023-06-04T02:43:43;17.15;;;9.35;;
55090;SDS011;40985;53.180;5.800;2023-06-04T02:46:09;23.38;;;10.32;;
55090;SDS011;40985;53.180;5.800;2023-06-04T02:48:35;16.38;;;8.10;;
55090;SDS011;40985;53.180;5.800;2023-06-04T02:51:00;18.52;;;8.13;;
55090;SDS011;40985;53.180;5.800;2023-06-04T02:53:26;16.90;;;8.43;;
55090;SDS011;40985;53.180;5.800;2023-06-04T02:55:52;17.73;;;8.90;;
55090;SDS011;40985;53.180;5.800;2023-06-04T02:58:18;16.25;;;8.57;;
55090;SDS011;40985;53.180;5.800;2023-06-04T03:00:44;15.55;;;8.23;;
55090;SDS011;40985;53.180;5.800;2023-06-04T03:03:10;14.43;;;7.97;;
55090;SDS011;40985;53.180;5.800;2023-06-04T03:05:35;14.50;;;8.07;;
55090;SDS011;40985;53.180;5.800;2023-06-04T03:08:02;19.00;;;8.45;;
55090;SDS011;40985;53.180;5.800;2023-06-04T03:10:28;18.50;;;7.53;;
55090;SDS011;40985;53.180;5.800;2023-06-04T03:12:56;17.63;;;7.13;;
55090;SDS011;40985;53.180;5.800;2023-06-04T03:15:21;14.30;;;7.32;;
55090;SDS011;40985;53.180;5.800;2023-06-04T03:17:47;16.48;;;8.82;;
55090;SDS011;40985;53.180;5.800;2023-06-04T03:20:13;18.38;;;8.40;;
55090;SDS011;40985;53.180;5.800;2023-06-04T03:22:39;13.00;;;7.60;;
55090;SDS011;40985;53.180;5.800;2023-06-04T03:25:05;15.05;;;7.90;;
55090;SDS011;40985;53.180;5.800;2023-06-04T03:27:31;13.40;;;7.47;;
55090;SDS011;40985;53.180;5.800;2023-06-04T03:29:58;15.35;;;7.40;;
55090;SDS011;40985;53.180;5.800;2023-06-04T03:32:23;12.57;;;7.15;;
55090;SDS011;40985;53.180;5.800;2023-06-04T03:34:50;11.40;;;7.10;;
55090;SDS011;40985;53.180;5.800;2023-06-04T03:37:16;13.10;;;7.53;;
55090;SDS011;40985;53.180;5.800;2023-06-04T03:39:42;17.85;;;7.82;;
55090;SDS011;40985;53.180;5.800;2023-06-04T03:42:08;12.88;;;6.78;;
55090;SDS011;40985;53.180;5.800;2023-06-04T03:44:33;17.75;;;8.10;;
55090;SDS011;40985;53.180;5.800;2023-06-04T03:46:59;8.95;;;6.65;;
55090;SDS011;40985;53.180;5.800;2023-06-04T03:49:25;12.25;;;7.32;;
55090;SDS011;40985;53.180;5.800;2023-06-04T03:51:50;12.10;;;7.55;;
55090;SDS011;40985;53.180;5.800;2023-06-04T03:54:16;11.73;;;7.07;;
55090;SDS011;40985;53.180;5.800;2023-06-04T03:56:45;13.30;;;7.85;;
55090;SDS011;40985;53.180;5.800;2023-06-04T03:59:11;11.73;;;8.23;;
55090;SDS011;40985;53.180;5.800;2023-06-04T04:01:37;12.77;;;8.20;;
55090;SDS011;40985;53.180;5.800;2023-06-04T04:04:03;15.55;;;8.88;;
55090;SDS011;40985;53.180;5.800;2023-06-04T04:06:30;14.38;;;8.88;;
55090;SDS011;40985;53.180;5.800;2023-06-04T04:08:56;12.40;;;8.13;;
55090;SDS011;40985;53.180;5.800;2023-06-04T04:11:23;13.85;;;8.85;;
55090;SDS011;40985;53.180;5.800;2023-06-04T04:13:48;12.88;;;9.45;;
55090;SDS011;40985;53.180;5.800;2023-06-04T04:16:14;9.98;;;8.88;;
55090;SDS011;40985;53.180;5.800;2023-06-04T04:18:41;16.80;;;9.80;;
55090;SDS011;40985;53.180;5.800;2023-06-04T04:21:11;14.68;;;8.88;;
55090;SDS011;40985;53.180;5.800;2023-06-04T04:23:37;13.48;;;8.80;;
55090;SDS011;40985;53.180;5.800;2023-06-04T04:26:07;10.43;;;8.90;;
55090;SDS011;40985;53.180;5.800;2023-06-04T04:28:33;12.23;;;9.23;;
55090;SDS011;40985;53.180;5.800;2023-06-04T04:30:59;10.15;;;8.95;;
55090;SDS011;40985;53.180;5.800;2023-06-04T04:33:27;11.38;;;8.60;;
55090;SDS011;40985;53.180;5.800;2023-06-04T04:36:01;14.18;;;8.75;;
55090;SDS011;40985;53.180;5.800;2023-06-04T04:38:27;13.73;;;9.50;;
55090;SDS011;40985;53.180;5.800;2023-06-04T04:40:53;12.18;;;8.38;;
55090;SDS011;40985;53.180;5.800;2023-06-04T04:43:28;10.00;;;8.90;;
55090;SDS011;40985;53.180;5.800;2023-06-04T04:45:57;10.75;;;8.82;;
55090;SDS011;40985;53.180;5.800;2023-06-04T04:48:23;16.55;;;8.95;;
55090;SDS011;40985;53.180;5.800;2023-06-04T04:50:49;12.38;;;8.30;;
55090;SDS011;40985;53.180;5.800;2023-06-04T04:53:15;16.40;;;9.10;;
55090;SDS011;40985;53.180;5.800;2023-06-04T04:55:41;16.00;;;8.50;;
55090;SDS011;40985;53.180;5.800;2023-06-04T04:58:06;10.50;;;7.95;;
55090;SDS011;40985;53.180;5.800;2023-06-04T05:00:32;11.05;;;8.38;;
55090;SDS011;40985;53.180;5.800;2023-06-04T05:02:58;13.75;;;9.30;;
55090;SDS011;40985;53.180;5.800;2023-06-04T05:05:23;14.20;;;8.57;;
55090;SDS011;40985;53.180;5.800;2023-06-04T05:07:49;13.15;;;7.63;;
55090;SDS011;40985;53.180;5.800;2023-06-04T05:10:15;14.25;;;6.80;;
55090;SDS011;40985;53.180;5.800;2023-06-04T05:13:00;13.73;;;7.75;;
55090;SDS011;40985;53.180;5.800;2023-06-04T05:15:26;10.98;;;6.90;;
55090;SDS011;40985;53.180;5.800;2023-06-04T05:17:52;15.45;;;7.28;;
55090;SDS011;40985;53.180;5.800;2023-06-04T05:20:21;15.07;;;7.75;;
55090;SDS011;40985;53.180;5.800;2023-06-04T05:22:47;11.38;;;7.32;;
55090;SDS011;40985;53.180;5.800;2023-06-04T05:25:13;13.32;;;6.55;;
55090;SDS011;40985;53.180;5.800;2023-06-04T05:27:40;11.48;;;6.43;;
55090;SDS011;40985;53.180;5.800;2023-06-04T05:30:06;8.88;;;5.13;;
55090;SDS011;40985;53.180;5.800;2023-06-04T05:32:32;12.30;;;5.63;;
55090;SDS011;40985;53.180;5.800;2023-06-04T05:34:58;8.77;;;5.60;;
55090;SDS011;40985;53.180;5.800;2023-06-04T05:37:25;8.02;;;5.13;;
55090;SDS011;40985;53.180;5.800;2023-06-04T05:39:55;10.77;;;5.05;;
55090;SDS011;40985;53.180;5.800;2023-06-04T05:42:22;6.78;;;4.28;;
55090;SDS011;40985;53.180;5.800;2023-06-04T05:44:49;9.68;;;4.43;;
55090;SDS011;40985;53.180;5.800;2023-06-04T05:47:15;8.60;;;3.78;;
55090;SDS011;40985;53.180;5.800;2023-06-04T05:49:44;9.57;;;4.57;;
55090;SDS011;40985;53.180;5.800;2023-06-04T05:52:10;7.65;;;4.55;;
55090;SDS011;40985;53.180;5.800;2023-06-04T05:54:36;8.88;;;4.22;;
55090;SDS011;40985;53.180;5.800;2023-06-04T05:57:04;10.73;;;4.80;;
55090;SDS011;40985;53.180;5.800;2023-06-04T05:59:34;9.13;;;4.13;;
55090;SDS011;40985;53.180;5.800;2023-06-04T06:01:59;8.20;;;4.15;;
55090;SDS011;40985;53.180;5.800;2023-06-04T06:04:25;9.35;;;2.85;;
55090;SDS011;40985;53.180;5.800;2023-06-04T06:06:51;10.18;;;2.50;;
55090;SDS011;40985;53.180;5.800;2023-06-04T06:09:17;7.68;;;3.03;;
55090;SDS011;40985;53.180;5.800;2023-06-04T06:11:43;7.53;;;3.05;;
55090;SDS011;40985;53.180;5.800;2023-06-04T06:14:08;8.23;;;3.70;;
55090;SDS011;40985;53.180;5.800;2023-06-04T06:16:34;6.13;;;3.20;;
55090;SDS011;40985;53.180;5.800;2023-06-04T06:19:01;11.32;;;4.32;;
55090;SDS011;40985;53.180;5.800;2023-06-04T06:21:27;11.20;;;4.70;;
55090;SDS011;40985;53.180;5.800;2023-06-04T06:23:53;8.73;;;3.83;;
55090;SDS011;40985;53.180;5.800;2023-06-04T06:26:19;6.25;;;3.17;;
55090;SDS011;40985;53.180;5.800;2023-06-04T06:28:45;6.80;;;3.63;;
55090;SDS011;40985;53.180;5.800;2023-06-04T06:31:10;8.57;;;4.13;;
55090;SDS011;40985;53.180;5.800;2023-06-04T06:33:36;6.15;;;3.40;;
55090;SDS011;40985;53.180;5.800;2023-06-04T06:36:10;6.15;;;2.78;;
55090;SDS011;40985;53.180;5.800;2023-06-04T06:38:39;7.65;;;2.40;;
55090;SDS011;40985;53.180;5.800;2023-06-04T06:41:05;5.32;;;2.00;;
55090;SDS011;40985;53.180;5.800;2023-06-04T06:43:31;11.50;;;1.92;;
55090;SDS011;40985;53.180;5.800;2023-06-04T06:45:58;6.75;;;1.90;;
55090;SDS011;40985;53.180;5.800;2023-06-04T06:48:24;9.75;;;1.73;;
55090;SDS011;40985;53.180;5.800;2023-06-04T06:50:49;6.22;;;1.45;;
55090;SDS011;40985;53.180;5.800;2023-06-04T06:53:15;6.55;;;1.27;;
55090;SDS011;40985;53.180;5.800;2023-06-04T06:55:41;7.38;;;1.40;;
55090;SDS011;40985;53.180;5.800;2023-06-04T06:58:06;7.05;;;1.33;;
55090;SDS011;40985;53.180;5.800;2023-06-04T07:00:32;6.45;;;1.00;;
55090;SDS011;40985;53.180;5.800;2023-06-04T07:02:58;3.80;;;0.68;;
55090;SDS011;40985;53.180;5.800;2023-06-04T07:05:24;5.15;;;1.10;;
55090;SDS011;40985;53.180;5.800;2023-06-04T07:07:49;5.60;;;0.90;;
55090;SDS011;40985;53.180;5.800;2023-06-04T07:10:15;6.00;;;0.95;;
55090;SDS011;40985;53.180;5.800;2023-06-04T07:12:41;5.90;;;1.10;;
55090;SDS011;40985;53.180;5.800;2023-06-04T07:15:07;7.10;;;0.95;;
55090;SDS011;40985;53.180;5.800;2023-06-04T07:17:34;5.85;;;1.00;;
55090;SDS011;40985;53.180;5.800;2023-06-04T07:20:00;3.50;;;0.50;;
55090;SDS011;40985;53.180;5.800;2023-06-04T07:22:26;5.57;;;0.88;;
55090;SDS011;40985;53.180;5.800;2023-06-04T07:24:52;4.20;;;0.55;;
55090;SDS011;40985;53.180;5.800;2023-06-04T07:27:18;3.97;;;0.50;;
55090;SDS011;40985;53.180;5.800;2023-06-04T07:29:44;5.82;;;0.95;;
55090;SDS011;40985;53.180;5.800;2023-06-04T07:32:10;4.95;;;0.68;;
55090;SDS011;40985;53.180;5.800;2023-06-04T07:34:37;3.15;;;0.50;;
55090;SDS011;40985;53.180;5.800;2023-06-04T07:37:04;6.80;;;1.08;;
55090;SDS011;40985;53.180;5.800;2023-06-04T07:39:30;6.97;;;0.70;;
55090;SDS011;40985;53.180;5.800;2023-06-04T07:41:56;3.75;;;0.50;;
55090;SDS011;40985;53.180;5.800;2023-06-04T07:44:21;5.25;;;0.70;;
55090;SDS011;40985;53.180;5.800;2023-06-04T07:46:47;4.60;;;0.50;;
55090;SDS011;40985;53.180;5.800;2023-06-04T07:49:13;3.47;;;0.40;;
55090;SDS011;40985;53.180;5.800;2023-06-04T07:51:39;4.45;;;0.60;;
55090;SDS011;40985;53.180;5.800;2023-06-04T07:54:05;8.25;;;0.63;;
55090;SDS011;40985;53.180;5.800;2023-06-04T07:56:31;4.40;;;0.50;;
55090;SDS011;40985;53.180;5.800;2023-06-04T07:58:56;6.65;;;0.40;;
55090;SDS011;40985;53.180;5.800;2023-06-04T08:01:22;4.63;;;0.40;;
55090;SDS011;40985;53.180;5.800;2023-06-04T08:03:49;3.88;;;0.82;;
55090;SDS011;40985;53.180;5.800;2023-06-04T08:06:15;7.50;;;0.50;;
55090;SDS011;40985;53.180;5.800;2023-06-04T08:08:44;2.28;;;0.30;;
55090;SDS011;40985;53.180;5.800;2023-06-04T08:11:16;3.42;;;0.50;;
55090;SDS011;40985;53.180;5.800;2023-06-04T08:13:42;2.90;;;0.40;;
55090;SDS011;40985;53.180;5.800;2023-06-04T08:16:08;3.05;;;0.45;;
55090;SDS011;40985;53.180;5.800;2023-06-04T08:18:38;2.88;;;0.40;;
55090;SDS011;40985;53.180;5.800;2023-06-04T08:21:10;1.90;;;0.40;;
55090;SDS011;40985;53.180;5.800;2023-06-04T08:23:36;4.38;;;0.60;;
55090;SDS011;40985;53.180;5.800;2023-06-04T08:26:03;4.20;;;0.52;;
55090;SDS011;40985;53.180;5.800;2023-06-04T08:28:28;2.72;;;0.60;;
55090;SDS011;40985;53.180;5.800;2023-06-04T08:30:54;3.67;;;0.75;;
55090;SDS011;40985;53.180;5.800;2023-06-04T08:33:20;4.05;;;0.68;;
55090;SDS011;40985;53.180;5.800;2023-06-04T08:35:46;3.40;;;0.60;;
55090;SDS011;40985;53.180;5.800;2023-06-04T08:38:11;2.70;;;0.40;;
55090;SDS011;40985;53.180;5.800;2023-06-04T08:40:37;2.60;;;0.50;;
55090;SDS011;40985;53.180;5.800;2023-06-04T08:43:03;3.60;;;0.52;;
55090;SDS011;40985;53.180;5.800;2023-06-04T08:45:29;1.10;;;0.22;;
55090;SDS011;40985;53.180;5.800;2023-06-04T08:48:00;2.22;;;0.40;;
55090;SDS011;40985;53.180;5.800;2023-06-04T08:50:27;1.85;;;0.30;;
55090;SDS011;40985;53.180;5.800;2023-06-04T08:52:53;3.05;;;0.50;;
55090;SDS011;40985;53.180;5.800;2023-06-04T08:55:20;2.97;;;0.40;;
55090;SDS011;40985;53.180;5.800;2023-06-04T08:57:47;4.90;;;0.50;;
55090;SDS011;40985;53.180;5.800;2023-06-04T09:00:15;4.38;;;0.77;;
55090;SDS011;40985;53.180;5.800;2023-06-04T09:02:41;2.25;;;0.43;;
55090;SDS011;40985;53.180;5.800;2023-06-04T09:05:08;4.13;;;0.40;;
55090;SDS011;40985;53.180;5.800;2023-06-04T09:07:35;4.40;;;0.68;;
55090;SDS011;40985;53.180;5.800;2023-06-04T09:10:06;2.55;;;0.60;;
55090;SDS011;40985;53.180;5.800;2023-06-04T09:12:35;3.42;;;0.50;;
55090;SDS011;40985;53.180;5.800;2023-06-04T09:15:05;1.88;;;0.47;;
55090;SDS011;40985;53.180;5.800;2023-06-04T09:17:32;2.15;;;0.50;;
55090;SDS011;40985;53.180;5.800;2023-06-04T09:19:58;8.70;;;0.70;;
55090;SDS011;40985;53.180;5.800;2023-06-04T09:22:36;5.32;;;0.60;;
55090;SDS011;40985;53.180;5.800;2023-06-04T09:25:05;3.08;;;0.40;;
55090;SDS011;40985;53.180;5.800;2023-06-04T09:27:38;2.08;;;0.32;;
55090;SDS011;40985;53.180;5.800;2023-06-04T09:30:07;2.55;;;0.68;;
55090;SDS011;40985;53.180;5.800;2023-06-04T09:32:34;3.92;;;0.40;;
55090;SDS011;40985;53.180;5.800;2023-06-04T09:35:13;2.38;;;0.47;;
55090;SDS011;40985;53.180;5.800;2023-06-04T09:37:41;2.05;;;0.30;;
55090;SDS011;40985;53.180;5.800;2023-06-04T09:40:09;1.13;;;0.40;;
55090;SDS011;40985;53.180;5.800;2023-06-04T09:42:42;2.40;;;0.30;;
55090;SDS011;40985;53.180;5.800;2023-06-04T09:45:09;1.40;;;0.43;;
55090;SDS011;40985;53.180;5.800;2023-06-04T09:47:39;2.33;;;0.40;;
55090;SDS011;40985;53.180;5.800;2023-06-04T09:50:08;6.72;;;0.73;;
55090;SDS011;40985;53.180;5.800;2023-06-04T09:52:37;3.13;;;0.30;;
55090;SDS011;40985;53.180;5.800;2023-06-04T09:55:14;3.92;;;0.50;;
55090;SDS011;40985;53.180;5.800;2023-06-04T09:57:46;4.05;;;0.50;;
55090;SDS011;40985;53.180;5.800;2023-06-04T10:00:13;2.53;;;0.40;;
55090;SDS011;40985;53.180;5.800;2023-06-04T10:02:41;3.63;;;0.43;;
55090;SDS011;40985;53.180;5.800;2023-06-04T10:05:09;1.95;;;0.40;;
55090;SDS011;40985;53.180;5.800;2023-06-04T10:07:39;1.63;;;0.40;;
55090;SDS011;40985;53.180;5.800;2023-06-04T10:10:11;1.38;;;0.40;;
55090;SDS011;40985;53.180;5.800;2023-06-04T10:12:41;3.70;;;0.35;;
55090;SDS011;40985;53.180;5.800;2023-06-04T10:15:12;1.42;;;0.60;;
55090;SDS011;40985;53.180;5.800;2023-06-04T10:17:38;1.23;;;0.30;;
55090;SDS011;40985;53.180;5.800;2023-06-04T10:20:05;2.40;;;0.45;;
55090;SDS011;40985;53.180;5.800;2023-06-04T10:22:33;4.45;;;0.50;;
55090;SDS011;40985;53.180;5.800;2023-06-04T10:25:03;2.65;;;0.68;;
55090;SDS011;40985;53.180;5.800;2023-06-04T10:27:30;3.17;;;0.40;;
55090;SDS011;40985;53.180;5.800;2023-06-04T10:29:57;0.90;;;0.30;;
55090;SDS011;40985;53.180;5.800;2023-06-04T10:32:26;2.03;;;0.30;;
55090;SDS011;40985;53.180;5.800;2023-06-04T10:34:52;3.25;;;0.30;;
55090;SDS011;40985;53.180;5.800;2023-06-04T10:37:18;2.95;;;0.57;;
55090;SDS011;40985;53.180;5.800;2023-06-04T10:39:50;1.70;;;0.30;;
55090;SDS011;40985;53.180;5.800;2023-06-04T10:42:20;2.35;;;0.38;;
55090;SDS011;40985;53.180;5.800;2023-06-04T10:44:53;3.08;;;0.30;;
55090;SDS011;40985;53.180;5.800;2023-06-04T10:49:50;1.25;;;0.30;;
55090;SDS011;40985;53.180;5.800;2023-06-04T10:52:16;2.60;;;0.40;;
55090;SDS011;40985;53.180;5.800;2023-06-04T10:54:44;4.28;;;0.77;;
55090;SDS011;40985;53.180;5.800;2023-06-04T10:59:37;6.10;;;0.98;;
55090;SDS011;40985;53.180;5.800;2023-06-04T11:02:07;3.42;;;0.30;;
55090;SDS011;40985;53.180;5.800;2023-06-04T11:04:35;2.83;;;0.40;;
55090;SDS011;40985;53.180;5.800;2023-06-04T11:07:04;3.53;;;0.95;;
55090;SDS011;40985;53.180;5.800;2023-06-04T11:09:37;2.33;;;0.50;;
55090;SDS011;40985;53.180;5.800;2023-06-04T11:12:12;2.25;;;0.45;;
55090;SDS011;40985;53.180;5.800;2023-06-04T11:14:38;2.78;;;0.32;;
55090;SDS011;40985;53.180;5.800;2023-06-04T11:17:11;2.38;;;0.30;;
55090;SDS011;40985;53.180;5.800;2023-06-04T11:19:38;3.63;;;0.40;;
55090;SDS011;40985;53.180;5.800;2023-06-04T11:22:04;4.20;;;0.75;;
55090;SDS011;40985;53.180;5.800;2023-06-04T11:24:30;2.75;;;0.50;;
55090;SDS011;40985;53.180;5.800;2023-06-04T11:26:57;2.63;;;0.50;;
55090;SDS011;40985;53.180;5.800;2023-06-04T11:29:27;2.17;;;0.50;;
55090;SDS011;40985;53.180;5.800;2023-06-04T11:31:53;3.10;;;0.70;;
55090;SDS011;40985;53.180;5.800;2023-06-04T11:34:26;3.35;;;0.40;;
55090;SDS011;40985;53.180;5.800;2023-06-04T11:36:53;4.07;;;0.52;;
55090;SDS011;40985;53.180;5.800;2023-06-04T11:39:19;2.75;;;0.68;;
55090;SDS011;40985;53.180;5.800;2023-06-04T11:41:45;1.85;;;0.65;;
55090;SDS011;40985;53.180;5.800;2023-06-04T11:44:11;1.83;;;0.40;;
55090;SDS011;40985;53.180;5.800;2023-06-04T11:46:41;3.88;;;0.88;;
55090;SDS011;40985;53.180;5.800;2023-06-04T11:49:16;2.15;;;0.43;;
55090;SDS011;40985;53.180;5.800;2023-06-04T11:51:50;1.60;;;0.60;;
55090;SDS011;40985;53.180;5.800;2023-06-04T11:54:17;1.52;;;0.50;;
55090;SDS011;40985;53.180;5.800;2023-06-04T11:56:44;2.17;;;0.63;;
55090;SDS011;40985;53.180;5.800;2023-06-04T11:59:14;3.03;;;0.90;;
55090;SDS011;40985;53.180;5.800;2023-06-04T12:01:41;2.55;;;0.40;;
55090;SDS011;40985;53.180;5.800;2023-06-04T12:04:14;2.67;;;0.52;;
55090;SDS011;40985;53.180;5.800;2023-06-04T12:06:54;2.60;;;0.50;;
55090;SDS011;40985;53.180;5.800;2023-06-04T12:09:25;2.65;;;0.65;;
55090;SDS011;40985;53.180;5.800;2023-06-04T12:12:03;2.95;;;0.50;;
55090;SDS011;40985;53.180;5.800;2023-06-04T12:14:30;1.25;;;0.40;;
55090;SDS011;40985;53.180;5.800;2023-06-04T12:19:22;1.35;;;0.40;;
55090;SDS011;40985;53.180;5.800;2023-06-04T12:21:58;2.28;;;0.73;;
55090;SDS011;40985;53.180;5.800;2023-06-04T12:24:28;3.13;;;0.70;;
55090;SDS011;40985;53.180;5.800;2023-06-04T12:27:05;4.28;;;0.60;;
55090;SDS011;40985;53.180;5.800;2023-06-04T12:29:33;1.92;;;0.30;;
55090;SDS011;40985;53.180;5.800;2023-06-04T12:32:06;3.53;;;0.88;;
55090;SDS011;40985;53.180;5.800;2023-06-04T12:34:38;2.42;;;0.40;;
55090;SDS011;40985;53.180;5.800;2023-06-04T12:37:07;2.47;;;0.80;;
55090;SDS011;40985;53.180;5.800;2023-06-04T12:39:36;4.22;;;0.70;;
55090;SDS011;40985;53.180;5.800;2023-06-04T12:42:05;1.80;;;0.40;;
55090;SDS011;40985;53.180;5.800;2023-06-04T12:44:32;3.22;;;0.50;;
55090;SDS011;40985;53.180;5.800;2023-06-04T12:46:58;1.83;;;0.40;;
55090;SDS011;40985;53.180;5.800;2023-06-04T12:49:23;2.22;;;0.40;;
55090;SDS011;40985;53.180;5.800;2023-06-04T12:51:49;3.67;;;0.43;;
55090;SDS011;40985;53.180;5.800;2023-06-04T12:54:15;2.08;;;0.40;;
55090;SDS011;40985;53.180;5.800;2023-06-04T12:56:40;2.00;;;0.45;;
55090;SDS011;40985;53.180;5.800;2023-06-04T12:59:06;1.52;;;0.52;;
55090;SDS011;40985;53.180;5.800;2023-06-04T13:01:32;3.50;;;0.63;;
55090;SDS011;40985;53.180;5.800;2023-06-04T13:03:58;1.35;;;0.35;;
55090;SDS011;40985;53.180;5.800;2023-06-04T13:06:24;2.38;;;0.80;;
55090;SDS011;40985;53.180;5.800;2023-06-04T13:08:49;2.97;;;0.57;;
55090;SDS011;40985;53.180;5.800;2023-06-04T13:11:15;4.00;;;0.50;;
55090;SDS011;40985;53.180;5.800;2023-06-04T13:13:41;1.40;;;0.50;;
55090;SDS011;40985;53.180;5.800;2023-06-04T13:16:07;3.70;;;0.45;;
55090;SDS011;40985;53.180;5.800;2023-06-04T13:18:33;1.38;;;0.40;;
55090;SDS011;40985;53.180;5.800;2023-06-04T13:20:59;1.58;;;0.30;;
55090;SDS011;40985;53.180;5.800;2023-06-04T13:23:25;4.15;;;0.45;;
55090;SDS011;40985;53.180;5.800;2023-06-04T13:25:50;2.63;;;0.40;;
55090;SDS011;40985;53.180;5.800;2023-06-04T13:28:16;1.52;;;0.30;;
55090;SDS011;40985;53.180;5.800;2023-06-04T13:30:42;1.15;;;0.40;;
55090;SDS011;40985;53.180;5.800;2023-06-04T13:33:08;2.05;;;0.32;;
55090;SDS011;40985;53.180;5.800;2023-06-04T13:35:34;1.30;;;0.30;;
55090;SDS011;40985;53.180;5.800;2023-06-04T13:38:02;4.60;;;0.50;;
55090;SDS011;40985;53.180;5.800;2023-06-04T13:40:29;2.60;;;0.40;;
55090;SDS011;40985;53.180;5.800;2023-06-04T13:42:55;3.05;;;0.30;;
55090;SDS011;40985;53.180;5.800;2023-06-04T13:45:20;3.50;;;0.63;;
55090;SDS011;40985;53.180;5.800;2023-06-04T13:47:49;1.75;;;0.47;;
55090;SDS011;40985;53.180;5.800;2023-06-04T13:50:15;4.28;;;0.35;;
55090;SDS011;40985;53.180;5.800;2023-06-04T13:52:41;2.95;;;0.43;;
55090;SDS011;40985;53.180;5.800;2023-06-04T13:55:07;2.00;;;0.32;;
55090;SDS011;40985;53.180;5.800;2023-06-04T13:57:33;1.60;;;0.50;;
55090;SDS011;40985;53.180;5.800;2023-06-04T13:59:59;2.20;;;0.77;;
55090;SDS011;40985;53.180;5.800;2023-06-04T14:02:25;2.05;;;0.30;;
55090;SDS011;40985;53.180;5.800;2023-06-04T14:04:52;2.30;;;0.68;;
55090;SDS011;40985;53.180;5.800;2023-06-04T14:07:19;3.63;;;0.40;;
55090;SDS011;40985;53.180;5.800;2023-06-04T14:09:45;2.88;;;0.40;;
55090;SDS011;40985;53.180;5.800;2023-06-04T14:12:11;3.08;;;0.93;;
55090;SDS011;40985;53.180;5.800;2023-06-04T14:14:38;2.83;;;0.32;;
55090;SDS011;40985;53.180;5.800;2023-06-04T14:17:05;4.00;;;0.50;;
55090;SDS011;40985;53.180;5.800;2023-06-04T14:19:34;2.22;;;0.40;;
55090;SDS011;40985;53.180;5.800;2023-06-04T14:22:01;1.45;;;0.35;;
55090;SDS011;40985;53.180;5.800;2023-06-04T14:24:27;4.05;;;0.77;;
55090;SDS011;40985;53.180;5.800;2023-06-04T14:26:52;1.88;;;0.40;;
55090;SDS011;40985;53.180;5.800;2023-06-04T14:29:18;4.07;;;0.68;;
55090;SDS011;40985;53.180;5.800;2023-06-04T14:31:44;4.50;;;0.55;;
55090;SDS011;40985;53.180;5.800;2023-06-04T14:34:10;2.55;;;0.50;;
55090;SDS011;40985;53.180;5.800;2023-06-04T14:36:36;1.27;;;0.50;;
55090;SDS011;40985;53.180;5.800;2023-06-04T14:39:02;2.22;;;0.60;;
55090;SDS011;40985;53.180;5.800;2023-06-04T14:41:28;1.80;;;0.30;;
55090;SDS011;40985;53.180;5.800;2023-06-04T14:43:53;1.48;;;0.40;;
55090;SDS011;40985;53.180;5.800;2023-06-04T14:46:19;3.08;;;0.55;;
55090;SDS011;40985;53.180;5.800;2023-06-04T14:48:45;2.00;;;0.40;;
55090;SDS011;40985;53.180;5.800;2023-06-04T14:51:10;1.88;;;0.45;;
55090;SDS011;40985;53.180;5.800;2023-06-04T14:53:36;3.17;;;0.50;;
55090;SDS011;40985;53.180;5.800;2023-06-04T14:56:05;0.88;;;0.30;;
55090;SDS011;40985;53.180;5.800;2023-06-04T14:58:31;3.47;;;0.30;;